Wingene, Belgium

6:58 PM CEST on July 29, 2016 (GMT +0200)
Wingene | | Change Station

Elev 59 ft 51.06 °N, 3.25 °E | Updated 3 minutes ago

Scattered Clouds
Scattered Clouds
70.5 °F
Feels Like 75 °F
N
10.0
Wind Variable Wind from WSW
Gusts 10.0 mph

Today
High -- | Low -- °F
--% Chance of Precip.
Yesterday
High -- | Low -- °F
Precip. -- in
Pressure 29.89 in
Visibility 6.2 miles
Clouds Few 2400 ft
Scattered Clouds 4800 ft
Heat Index 75 °F
Dew Point 59 °F
Humidity 67%
Rainfall 0.02 in
Snow Depth Not available.
6:08 AM 9:37 PM
Waning Crescent, 20% visible
METAR EBOS 291650Z 25015KT 9999 FEW024 SCT048 21/13 Q1012 NOSIG
Pressure 29.89 in
Visibility 6.2 miles
Clouds Few 2400 ft
Scattered Clouds 4800 ft
Heat Index 75 °F
Dew Point 59 °F
Humidity 67%
Rainfall 0.02 in
Snow Depth Not available.
6:08 AM 9:37 PM
Waning Crescent, 20% visible
METAR EBOS 291650Z 25015KT 9999 FEW024 SCT048 21/13 Q1012 NOSIG

10-Day Weather Forecast

×

Almanac

Astronomy

Jul. 29, 2016 Rise Set
Actual Time
Civil Twilight
Nautical Twilight
Astronomical Twilight
Moon
Length of Visible Light
Length of Day
Tomorrow will be .
, % of the Moon is Illuminated

Today's Extremes

Country Highs Country Lows

Community

WunderPhotos

Upload Photos

1,928,378 photos uploaded!

WunderBlog® & News

Nearby

Air Quality

  Air Quality AQ Index Pollutant
Not available.

Snow Depth

Station Depth Elevation

Earthquake Activity

City Distance Mag. Time & Date
Minimum magnitude displayed is 2.5.

Coastal Water Temperatures

Place Temperature

Stations

Nearby Weather Stations

Station Location Temp. Windchill Dew Point Humidity Wind Precip. Elev Updated Type